Time;durP1;ratioP1;P1;durP2;ratioP2;P2;SDS_P1;SDS_P2;PMS_P1;PMS_P2;Temp;Humidity;BMP_temperature;BMP_pressure;BME280_temperature;BME280_humidity;BME280_pressure;Samples;Min_cycle;Max_cycle;Signal;HPM_P1;HPM_P2
2022/06/02 00:02:53;;;;;;;;;3.00;3.00;;;;;18.98;32.22;101291.25;4942105;28;46072;-50
2022/06/02 00:05:33;;;;;;;;;6.75;5.25;;;;;18.98;32.17;101304.56;4943848;28;45699;-50
2022/06/02 00:08:17;;;;;;;;;3.00;3.00;;;;;18.94;32.34;101308.28;4961852;28;45401;-52
2022/06/02 00:10:57;;;;;;;;;2.00;2.00;;;;;18.92;32.24;101312.81;4944552;28;45417;-52
2022/06/02 00:13:41;;;;;;;;;3.00;3.00;;;;;18.87;32.23;101306.78;4961432;28;45478;-52
2022/06/02 00:16:16;;;;;;;;;5.00;4.00;;;;;18.86;31.96;101310.34;4943870;28;45245;-52
2022/06/02 00:19:02;;;;;;;;;2.00;2.00;;;;;18.83;32.41;101310.50;4949606;28;45339;-50
2022/06/02 00:21:38;;;;;;;;;2.50;2.50;;;;;18.79;32.30;101315.06;4961460;28;45403;-48
2022/06/02 00:24:19;;;;;;;;;1.75;1.75;;;;;18.76;32.69;101314.31;4959509;28;47838;-50
2022/06/02 00:26:56;;;;;;;;;4.00;2.75;;;;;18.74;32.62;101317.03;4931980;28;45341;-49
2022/06/02 00:29:38;;;;;;;;;1.75;1.75;;;;;18.71;32.71;101314.50;4943920;28;46221;-52
2022/06/02 00:32:19;;;;;;;;;4.00;3.00;;;;;18.69;32.52;101316.34;4960957;28;45336;-50
2022/06/02 00:35:06;;;;;;;;;3.25;2.00;;;;;18.63;32.66;101320.13;4948032;28;45419;-52
2022/06/02 00:37:48;;;;;;;;;0.00;0.00;;;;;18.58;32.79;101313.22;4961144;28;45294;-51
2022/06/02 00:40:15;;;;;;;;;3.50;2.50;;;;;18.59;32.60;101328.28;4952091;28;45207;-51
2022/06/02 00:43:20;;;;;;;;;2.75;2.75;;;;;18.55;32.56;101326.66;4961094;28;45323;-51
2022/06/02 00:45:49;;;;;;;;;3.25;3.25;;;;;18.51;32.65;101326.78;4952803;28;45237;-51
2022/06/02 00:48:28;;;;;;;;;3.00;3.00;;;;;18.48;32.70;101326.88;4960864;28;45493;-52
2022/06/02 00:51:05;;;;;;;;;2.25;2.25;;;;;18.43;32.87;101309.38;4961078;28;45531;-51
2022/06/02 00:57:30;;;;;;;;;2.00;2.00;;;;;18.43;32.85;101317.38;4961075;28;45364;-47
2022/06/02 00:59:43;;;;;;;;;3.50;3.00;;;;;18.33;32.97;101308.84;4949865;28;45387;-52
2022/06/02 01:02:09;;;;;;;;;4.25;4.00;;;;;18.33;33.13;101309.72;4960858;28;45264;-52
2022/06/02 01:04:38;;;;;;;;;4.00;3.00;;;;;18.28;33.02;101309.03;4943311;28;45595;-49
2022/06/02 01:07:33;;;;;;;;;3.00;3.00;;;;;18.28;33.10;101306.34;4960758;28;47111;-51
2022/06/02 01:10:21;;;;;;;;;3.25;2.25;;;;;18.26;33.37;101299.38;4953631;28;45426;-48
2022/06/02 01:13:14;;;;;;;;;2.50;2.50;;;;;18.22;33.31;101306.59;4961102;28;45376;-50
2022/06/02 01:15:42;;;;;;;;;2.50;2.50;;;;;18.17;33.20;101300.56;4960817;28;45245;-59
2022/06/02 01:18:26;;;;;;;;;3.50;3.50;;;;;18.16;33.11;101304.16;4960384;28;46165;-56
2022/06/02 01:21:16;;;;;;;;;4.00;4.00;;;;;18.12;33.48;101299.88;4943396;28;45364;-52
2022/06/02 01:24:27;;;;;;;;;3.50;3.50;;;;;18.08;33.34;101298.25;4950106;28;45253;-53
2022/06/02 01:27:18;;;;;;;;;4.75;4.00;;;;;18.05;33.76;101312.53;4933814;28;45394;-52
2022/06/02 01:29:52;;;;;;;;;4.00;4.00;;;;;18.01;33.63;101310.91;4960397;28;45246;-48
2022/06/02 01:32:20;;;;;;;;;5.00;4.00;;;;;17.99;33.61;101310.09;4960170;28;45241;-51
2022/06/02 01:35:07;;;;;;;;;4.50;4.00;;;;;17.96;33.59;101300.44;4948201;28;45430;-51
2022/06/02 01:37:57;;;;;;;;;3.75;3.75;;;;;17.92;33.82;101298.78;4960610;28;45415;-49
2022/06/02 01:40:48;;;;;;;;;4.00;4.00;;;;;17.90;33.92;101302.41;4952219;28;45521;-49
2022/06/02 01:43:32;;;;;;;;;3.00;2.00;;;;;17.85;33.79;101306.09;4960564;28;45310;-50
2022/06/02 01:46:24;;;;;;;;;3.25;3.25;;;;;17.81;33.81;101303.59;4950766;28;45343;-50
2022/06/02 01:49:10;;;;;;;;;3.50;3.25;;;;;17.81;33.98;101303.59;4961943;28;45247;-48
2022/06/02 01:51:46;;;;;;;;;3.00;3.00;;;;;17.77;34.13;101307.31;4946226;28;45462;-51
2022/06/02 01:54:26;;;;;;;;;5.25;3.75;;;;;17.74;33.98;101310.94;4963553;28;45295;-52
2022/06/02 01:57:02;;;;;;;;;1.00;1.00;;;;;17.71;33.95;101321.69;4963710;28;45322;-52
2022/06/02 01:59:46;;;;;;;;;4.50;4.00;;;;;17.67;34.29;101331.56;4963837;28;45217;-51
2022/06/02 02:02:41;;;;;;;;;4.00;4.00;;;;;17.63;34.14;101315.75;4962929;28;46415;-47
2022/06/02 02:05:25;;;;;;;;;5.50;4.00;;;;;17.61;34.39;101314.94;4946113;28;45256;-49
2022/06/02 02:08:09;;;;;;;;;5.00;4.00;;;;;17.57;34.20;101314.16;4945495;28;45562;-52
2022/06/02 02:11:19;;;;;;;;;3.50;3.50;;;;;17.54;34.34;101309.81;4951542;28;45304;-51
2022/06/02 02:14:00;;;;;;;;;5.25;3.50;;;;;17.50;34.60;101307.34;4922762;28;45395;-51
2022/06/02 02:16:34;;;;;;;;;3.00;3.00;;;;;17.46;34.55;101306.59;4922563;28;45525;-47
2022/06/02 02:19:24;;;;;;;;;5.25;5.00;;;;;17.44;34.76;101308.41;4939195;28;45472;-53
2022/06/02 02:21:59;;;;;;;;;3.50;2.75;;;;;17.42;34.82;101310.28;4951269;28;45403;-52
2022/06/02 02:25:02;;;;;;;;;4.25;3.00;;;;;17.39;34.58;101313.00;4962926;28;45265;-51
2022/06/02 02:28:03;;;;;;;;;6.00;4.75;;;;;17.35;34.70;101301.63;4963183;28;45228;-48
2022/06/02 02:30:49;;;;;;;;;4.00;4.00;;;;;17.31;34.70;101292.03;4932517;28;45529;-52
2022/06/02 02:33:52;;;;;;;;;3.50;3.50;;;;;17.29;34.66;101291.19;4954940;28;45468;-51
2022/06/02 02:36:31;;;;;;;;;5.75;4.50;;;;;17.27;34.74;101305.44;4961390;28;45467;-53
2022/06/02 02:39:08;;;;;;;;;3.25;3.00;;;;;17.25;34.99;101302.00;4949747;28;45382;-53
2022/06/02 02:41:41;;;;;;;;;5.50;5.50;;;;;17.22;35.07;101289.69;4951262;28;45250;-50
2022/06/02 02:44:35;;;;;;;;;6.00;5.00;;;;;17.19;34.84;101285.34;4962877;28;45275;-52
2022/06/02 02:47:17;;;;;;;;;4.50;4.50;;;;;17.16;34.79;101295.22;4937629;28;64775;-50
2022/06/02 02:49:55;;;;;;;;;7.25;5.75;;;;;17.13;35.02;101289.97;4951413;28;45489;-49
2022/06/02 02:52:33;;;;;;;;;4.00;4.00;;;;;17.11;35.35;101305.13;4962858;28;45264;-50
2022/06/02 02:55:09;;;;;;;;;4.00;4.00;;;;;17.09;35.17;101310.44;4962891;28;45233;-51
2022/06/02 02:58:04;;;;;;;;;3.00;3.00;;;;;17.06;35.09;101311.41;4962890;28;46398;-47
2022/06/02 03:00:37;;;;;;;;;6.00;5.50;;;;;17.00;35.05;101308.09;4945157;28;45305;-49
2022/06/02 03:03:25;;;;;;;;;5.50;5.50;;;;;17.01;35.33;101315.16;4962659;28;45267;-49
2022/06/02 03:06:18;;;;;;;;;9.00;9.00;;;;;16.98;35.45;101313.47;4951232;28;45390;-54
2022/06/02 03:09:05;;;;;;;;;5.00;5.00;;;;;16.97;35.30;101318.84;4960867;28;46767;-52
2022/06/02 03:11:52;;;;;;;;;7.50;6.25;;;;;16.94;35.25;101313.59;4961733;28;45225;-52
2022/06/02 03:14:32;;;;;;;;;7.00;7.00;;;;;16.89;35.29;101309.28;4962572;28;45363;-54
2022/06/02 03:17:39;;;;;;;;;4.75;4.75;;;;;16.86;35.44;101297.91;4949860;28;45244;-52
2022/06/02 03:20:26;;;;;;;;;3.75;3.75;;;;;16.84;35.40;101305.91;4938365;28;45236;-54
2022/06/02 03:23:25;;;;;;;;;4.00;3.75;;;;;16.80;35.72;101300.75;4962094;28;45325;-53
2022/06/02 03:25:59;;;;;;;;;4.75;4.75;;;;;16.77;35.90;101306.16;4962231;28;45399;-47
2022/06/02 03:28:42;;;;;;;;;6.00;6.00;;;;;16.75;35.68;101319.44;4962368;28;45326;-52
2022/06/02 03:31:17;;;;;;;;;6.25;6.25;;;;;16.73;35.45;101316.84;4960769;28;48252;-52
2022/06/02 03:34:07;;;;;;;;;3.25;3.25;;;;;16.70;35.82;101316.06;4961846;28;45349;-51
2022/06/02 03:36:58;;;;;;;;;5.75;5.75;;;;;16.69;35.91;101316.97;4951357;28;45234;-49
2022/06/02 03:39:41;;;;;;;;;6.50;5.00;;;;;16.64;35.76;101305.66;4947842;28;45344;-50
2022/06/02 03:42:33;;;;;;;;;6.50;6.50;;;;;16.60;35.80;101307.53;4962089;28;45299;-48
2022/06/02 03:44:58;;;;;;;;;2.25;2.25;;;;;16.61;35.81;101313.72;4958187;28;45422;-51
2022/06/02 03:47:49;;;;;;;;;6.50;6.00;;;;;16.58;35.82;101322.63;4958065;28;45476;-49
2022/06/02 03:50:29;;;;;;;;;7.25;6.00;;;;;16.55;36.29;101317.41;4961948;28;45318;-50
2022/06/02 03:53:26;;;;;;;;;7.50;6.00;;;;;16.49;35.92;101313.16;4950390;28;46349;-48
2022/06/02 03:56:13;;;;;;;;;8.25;6.00;;;;;16.50;36.09;101317.56;4961791;28;45430;-48
2022/06/02 03:59:00;;;;;;;;;5.25;5.25;;;;;16.49;36.17;101312.28;4961730;28;45264;-50
2022/06/02 04:01:29;;;;;;;;;6.25;5.25;;;;;16.45;36.35;101314.16;4961539;28;45682;-49
2022/06/02 04:04:13;;;;;;;;;8.50;8.50;;;;;16.45;36.49;101319.44;4961244;28;45305;-48
2022/06/02 04:07:03;;;;;;;;;10.25;9.75;;;;;16.42;36.07;101317.75;4961628;28;45236;-51
2022/06/02 04:10:08;;;;;;;;;7.00;7.00;;;;;16.42;36.27;101319.56;4961724;28;45432;-50
2022/06/02 04:15:53;;;;;;;;;7.25;7.25;;;;;16.36;36.18;101322.38;4951044;28;45353;-51
2022/06/02 04:18:32;;;;;;;;;7.00;6.00;;;;;16.35;36.33;101329.50;4943924;28;45448;-51
2022/06/02 04:21:10;;;;;;;;;6.00;6.00;;;;;16.36;36.50;101327.69;4961713;28;45359;-50
2022/06/02 04:23:59;;;;;;;;;8.50;6.50;;;;;16.35;36.42;101339.22;4932783;28;45437;-50
2022/06/02 04:26:56;;;;;;;;;4.00;4.00;;;;;16.33;36.70;101338.41;4961163;28;46167;-48
2022/06/02 04:29:36;;;;;;;;;7.00;5.00;;;;;16.32;36.61;101345.47;4961137;28;45369;-54
2022/06/02 04:32:29;;;;;;;;;8.25;6.50;;;;;16.31;36.79;101338.41;4961324;28;45331;-51
2022/06/02 04:35:03;;;;;;;;;7.25;5.25;;;;;16.30;36.63;101349.97;4932430;28;45439;-51
2022/06/02 04:37:40;;;;;;;;;5.75;5.75;;;;;16.30;36.47;101354.38;4960160;28;45500;-51
2022/06/02 04:40:27;;;;;;;;;6.50;6.50;;;;;16.30;36.67;101351.72;4951047;28;45308;-52
2022/06/02 04:43:12;;;;;;;;;9.50;7.00;;;;;16.31;37.09;101351.69;4961219;28;45337;-51
2022/06/02 04:45:40;;;;;;;;;6.50;6.25;;;;;16.31;37.27;101343.72;4953294;28;45361;-49
2022/06/02 04:48:24;;;;;;;;;9.50;6.75;;;;;16.31;36.95;101346.38;4961037;28;46153;-51
2022/06/02 04:50:58;;;;;;;;;9.75;9.25;;;;;16.30;36.99;101341.13;4960966;28;45245;-50
2022/06/02 04:53:40;;;;;;;;;10.25;7.75;;;;;16.33;36.84;101346.38;4961242;28;45296;-51
2022/06/02 04:56:28;;;;;;;;;8.25;7.75;;;;;16.31;37.12;101342.88;4961094;28;45305;-52
2022/06/02 04:59:21;;;;;;;;;7.00;7.00;;;;;16.33;37.11;101339.25;4960685;28;46322;-53
2022/06/02 05:01:55;;;;;;;;;7.50;7.00;;;;;16.37;37.03;101340.91;4960733;28;45239;-49
2022/06/02 05:04:43;;;;;;;;;7.25;7.00;;;;;16.39;37.05;101351.50;4960752;28;45352;-48
2022/06/02 05:07:22;;;;;;;;;6.00;6.00;;;;;16.39;37.36;101340.88;4955170;28;45149;-48
2022/06/02 05:10:08;;;;;;;;;8.25;8.25;;;;;16.42;36.96;101343.44;4943402;28;45457;-47
2022/06/02 05:12:49;;;;;;;;;5.00;5.00;;;;;16.44;37.07;101344.28;4960570;28;45347;-51
2022/06/02 05:15:26;;;;;;;;;8.50;7.50;;;;;16.44;37.48;101343.38;4960749;28;45459;-50
2022/06/02 05:18:22;;;;;;;;;7.00;7.00;;;;;16.49;36.95;101341.47;4960339;28;45485;-49
2022/06/02 05:21:06;;;;;;;;;8.25;8.00;;;;;16.51;37.24;101340.50;4960496;28;46430;-53
2022/06/02 05:24:07;;;;;;;;;9.25;6.25;;;;;16.53;37.45;101349.28;4950479;28;45336;-48
2022/06/02 05:26:54;;;;;;;;;9.75;8.50;;;;;16.56;37.28;101346.56;4964159;28;45276;-50
2022/06/02 05:29:35;;;;;;;;;8.00;8.00;;;;;16.60;37.51;101335.84;4963963;28;45349;-51
2022/06/02 05:32:07;;;;;;;;;9.75;9.75;;;;;16.62;37.45;101339.34;4963637;28;45475;-50
2022/06/02 05:34:44;;;;;;;;;10.00;8.25;;;;;16.65;37.46;101342.75;4963418;28;45376;-52
2022/06/02 10:13:53;;;;;;;;;5.00;4.00;;;;;23.48;34.14;101291.25;5570382;23;46599;-47
2022/06/02 10:16:34;;;;;;;;;3.00;3.00;;;;;23.61;34.07;101283.31;4973394;28;46343;-46
2022/06/02 10:19:02;;;;;;;;;4.75;3.75;;;;;23.77;33.99;101280.56;4973808;28;45381;-46
2022/06/02 10:21:55;;;;;;;;;4.50;4.25;;;;;23.91;33.92;101286.00;4971947;28;45346;-45
2022/06/02 10:24:48;;;;;;;;;5.25;4.00;;;;;24.05;33.72;101277.09;4966466;28;45427;-44
2022/06/02 10:27:49;;;;;;;;;3.00;3.00;;;;;24.17;33.65;101278.13;4974953;28;45512;-50
2022/06/02 10:30:53;;;;;;;;;4.50;4.50;;;;;24.35;33.39;101273.38;4956266;28;45269;-46
2022/06/02 10:33:56;;;;;;;;;1.50;1.50;;;;;24.58;33.56;101273.72;4973423;28;45396;-49
2022/06/02 10:36:41;;;;;;;;;4.50;4.25;;;;;24.86;33.41;101275.50;4983252;28;45311;-50
2022/06/02 10:39:27;;;;;;;;;5.25;4.50;;;;;25.19;33.92;101274.19;4967804;28;47056;-47
2022/06/02 10:42:18;;;;;;;;;3.75;3.75;;;;;25.57;33.41;101278.84;4965868;28;45382;-49
2022/06/02 10:45:08;;;;;;;;;3.25;3.25;;;;;25.98;33.28;101276.88;4943284;28;45606;-51
2022/06/02 10:48:08;;;;;;;;;3.25;3.25;;;;;26.43;33.15;101253.00;4966000;28;45745;-50
2022/06/02 10:50:52;;;;;;;;;3.25;3.25;;;;;26.88;33.02;101267.75;4967626;28;46044;-48
2022/06/02 10:53:44;;;;;;;;;5.00;4.00;;;;;27.29;33.58;101281.78;4965852;28;45313;-48
2022/06/02 10:56:22;;;;;;;;;4.25;3.00;;;;;27.57;32.91;101276.00;4954265;28;45464;-50
2022/06/02 10:59:09;;;;;;;;;4.00;4.00;;;;;27.90;32.71;101278.84;4966311;28;45678;-51
2022/06/02 11:01:41;;;;;;;;;2.00;2.00;;;;;28.19;32.44;101278.41;4963745;28;45532;-52
2022/06/02 11:04:28;;;;;;;;;4.00;4.00;;;;;28.46;32.14;101272.56;4951891;28;46089;-52
2022/06/02 11:06:53;;;;;;;;;2.50;2.50;;;;;28.75;31.95;101268.47;4964947;28;45543;-46
2022/06/02 11:09:43;;;;;;;;;5.25;5.25;;;;;29.07;31.74;101256.78;4962010;28;45911;-50
2022/06/02 11:12:30;;;;;;;;;5.00;3.75;;;;;29.40;31.49;101253.09;4961855;28;46363;-49
2022/06/02 11:15:20;;;;;;;;;3.00;1.00;;;;;29.75;31.49;101251.84;4963786;28;45602;-51
2022/06/02 11:18:05;;;;;;;;;3.00;3.00;;;;;30.07;31.15;101244.59;4977888;28;45481;-51
2022/06/02 11:20:52;;;;;;;;;2.00;2.00;;;;;30.38;31.15;101248.13;4965096;28;45777;-51
2022/06/02 11:24:05;;;;;;;;;3.50;3.00;;;;;30.70;30.71;101252.47;4971684;28;47240;-50
2022/06/02 11:27:08;;;;;;;;;3.00;3.00;;;;;31.07;30.89;101238.22;4949809;28;45621;-51
2022/06/02 11:29:59;;;;;;;;;3.75;3.75;;;;;31.44;30.76;101245.59;4974978;28;45484;-51
2022/06/02 11:32:44;;;;;;;;;2.50;2.50;;;;;31.81;30.12;101235.81;4974866;28;45486;-49
2022/06/02 11:35:56;;;;;;;;;3.25;3.25;;;;;32.24;30.60;101244.34;4966958;28;46842;-52
2022/06/02 11:38:48;;;;;;;;;3.00;3.00;;;;;32.67;29.91;101240.03;4960587;28;45510;-50
2022/06/02 11:41:41;;;;;;;;;3.00;3.00;;;;;33.14;30.21;101240.81;4978691;28;46767;-51
2022/06/02 11:44:37;;;;;;;;;3.00;3.00;;;;;33.57;30.14;101236.34;4978267;28;45386;-49
2022/06/02 11:47:24;;;;;;;;;2.00;1.00;;;;;34.05;30.04;101238.66;4937623;28;46366;-47
2022/06/02 11:50:18;;;;;;;;;2.25;2.00;;;;;34.44;29.74;101235.41;4956954;28;45544;-45
2022/06/02 11:52:57;;;;;;;;;2.25;2.25;;;;;34.69;29.47;101232.72;4977962;28;45839;-48
2022/06/02 11:55:30;;;;;;;;;3.75;3.75;;;;;34.82;29.00;101233.91;4978266;28;45420;-51
2022/06/02 11:58:05;;;;;;;;;3.00;3.00;;;;;34.87;28.36;101225.25;4978260;28;47202;-47
2022/06/02 12:00:46;;;;;;;;;3.25;3.25;;;;;34.84;27.98;101214.63;4969203;28;45481;-50
2022/06/02 12:03:39;;;;;;;;;2.25;2.25;;;;;34.79;27.62;101217.91;4977258;28;45527;-49
2022/06/02 12:06:07;;;;;;;;;2.25;2.25;;;;;34.67;27.42;101219.25;4959626;28;45356;-48
2022/06/02 12:08:52;;;;;;;;;3.25;2.25;;;;;34.46;27.20;101211.53;4977853;28;48096;-49
2022/06/02 12:11:37;;;;;;;;;2.00;2.00;;;;;34.22;26.93;101204.97;4978117;28;45443;-52
2022/06/02 12:14:25;;;;;;;;;3.50;3.50;;;;;33.97;26.87;101207.63;4950554;28;45421;-50
2022/06/02 12:17:01;;;;;;;;;2.75;2.75;;;;;33.74;26.62;101203.78;4973599;28;45880;-47
2022/06/02 12:19:51;;;;;;;;;2.75;2.75;;;;;33.56;26.72;101201.97;4977020;28;45668;-46
2022/06/02 12:22:39;;;;;;;;;3.50;3.50;;;;;33.33;26.45;101193.50;4967890;28;45490;-46
2022/06/02 12:25:16;;;;;;;;;4.25;4.25;;;;;33.09;26.50;101194.16;4973540;28;45804;-51
2022/06/02 12:27:44;;;;;;;;;3.00;3.00;;;;;32.84;26.21;101189.38;4975138;28;45452;-48
2022/06/02 12:30:31;;;;;;;;;4.25;4.25;;;;;32.63;25.90;101169.78;4966583;28;46251;-52
2022/06/02 12:33:19;;;;;;;;;2.75;2.00;;;;;32.37;25.75;101179.56;4975746;28;45373;-47
2022/06/02 12:36:21;;;;;;;;;4.00;4.00;;;;;32.12;25.92;101175.69;4975882;28;45471;-48
2022/06/02 12:38:55;;;;;;;;;2.50;2.00;;;;;31.90;25.72;101175.13;4969354;28;45512;-51
2022/06/02 12:41:47;;;;;;;;;3.75;2.75;;;;;31.69;25.54;101160.94;4978215;28;45800;-50
2022/06/02 12:44:46;;;;;;;;;2.50;2.50;;;;;31.50;25.76;101156.44;4976662;28;45523;-51
2022/06/02 12:47:26;;;;;;;;;2.50;2.50;;;;;31.37;25.96;101154.91;4966867;28;45353;-48
2022/06/02 12:50:00;;;;;;;;;2.50;2.50;;;;;31.40;25.35;101149.16;4958397;28;45444;-46
2022/06/02 12:52:25;;;;;;;;;3.00;3.00;;;;;31.52;25.71;101151.69;4978020;28;45401;-48
2022/06/02 12:54:54;;;;;;;;;3.00;3.00;;;;;31.58;25.24;101151.09;4979562;28;45485;-47
2022/06/02 12:57:41;;;;;;;;;3.00;3.00;;;;;31.55;25.01;101152.25;4976844;28;45448;-50
2022/06/02 13:00:32;;;;;;;;;3.00;3.00;;;;;31.65;25.63;101151.38;4969254;28;45848;-47
2022/06/02 13:03:31;;;;;;;;;3.00;2.00;;;;;31.88;25.62;101152.66;4976986;28;45456;-48
2022/06/02 13:06:14;;;;;;;;;2.75;2.75;;;;;32.20;25.25;101153.22;4957732;28;45524;-49
2022/06/02 13:09:04;;;;;;;;;3.75;3.75;;;;;32.55;25.13;101156.97;4977964;28;45596;-48
2022/06/02 13:12:05;;;;;;;;;3.50;3.50;;;;;32.98;25.69;101157.16;4977503;28;45608;-49
2022/06/02 13:15:12;;;;;;;;;2.00;2.00;;;;;33.42;25.46;101156.28;4967533;28;45532;-51
2022/06/02 13:17:59;;;;;;;;;3.75;3.25;;;;;33.90;25.43;101143.91;4963603;28;45293;-50
2022/06/02 13:20:28;;;;;;;;;4.00;2.75;;;;;34.30;25.31;101147.75;4973867;28;45380;-50
2022/06/02 13:23:11;;;;;;;;;2.75;2.75;;;;;34.75;25.23;101142.84;4969713;28;46169;-52
2022/06/02 13:25:59;;;;;;;;;2.75;2.00;;;;;35.20;25.05;101151.50;4967853;28;45448;-48
2022/06/02 13:28:49;;;;;;;;;2.25;2.00;;;;;35.74;25.17;101148.09;4973115;28;45397;-48
2022/06/02 13:31:57;;;;;;;;;2.50;2.50;;;;;36.24;24.72;101140.50;4973263;28;45470;-48
2022/06/02 13:34:40;;;;;;;;;2.00;2.00;;;;;36.78;24.76;101146.06;4974304;28;45304;-46
2022/06/02 13:37:37;;;;;;;;;3.75;1.50;;;;;37.23;24.38;101147.88;4973357;28;47490;-50
2022/06/02 13:40:25;;;;;;;;;2.75;2.75;;;;;37.68;24.07;101147.00;4966751;28;45427;-49
2022/06/02 13:43:10;;;;;;;;;4.75;3.00;;;;;38.12;24.55;101137.84;4976723;28;45553;-52
2022/06/02 13:46:11;;;;;;;;;1.25;1.25;;;;;38.59;24.08;101143.78;4963305;28;45393;-47
2022/06/02 13:49:14;;;;;;;;;3.00;3.00;;;;;39.04;23.81;101145.44;4968789;28;45719;-50
2022/06/02 13:52:03;;;;;;;;;2.50;2.50;;;;;39.45;23.80;101151.00;4972504;28;45413;-50
2022/06/02 13:57:48;;;;;;;;;2.00;2.00;;;;;40.14;23.25;101142.84;4979968;28;45437;-50
2022/06/02 14:00:24;;;;;;;;;2.75;1.25;;;;;40.51;23.23;101136.94;4969737;28;47725;-49
2022/06/02 14:03:02;;;;;;;;;1.75;1.75;;;;;40.78;23.30;101135.03;4980405;28;45527;-46
2022/06/02 14:05:46;;;;;;;;;1.50;1.50;;;;;41.06;22.77;101145.84;4978136;28;45500;-50
2022/06/02 14:08:17;;;;;;;;;2.00;2.00;;;;;41.37;22.64;101140.69;4979826;28;45513;-48
2022/06/02 14:11:22;;;;;;;;;1.25;1.25;;;;;41.62;22.40;101146.31;4979477;28;45570;-53
2022/06/02 14:14:06;;;;;;;;;1.50;1.50;;;;;41.93;22.22;101143.88;4974274;28;45461;-51
2022/06/02 14:16:50;;;;;;;;;1.25;1.00;;;;;42.22;22.46;101134.97;4972998;28;45808;-49
2022/06/02 14:19:27;;;;;;;;;1.00;1.00;;;;;42.46;22.38;101134.41;4979355;28;45558;-47
2022/06/02 14:21:59;;;;;;;;;1.75;1.75;;;;;42.70;21.99;101129.97;4972258;28;45694;-50
2022/06/02 14:24:55;;;;;;;;;1.00;1.00;;;;;42.87;21.81;101135.75;4977761;28;45461;-51
2022/06/02 14:27:37;;;;;;;;;1.75;1.75;;;;;43.01;21.40;101130.94;4964293;28;45334;-50
2022/06/02 14:30:18;;;;;;;;;1.00;1.00;;;;;43.10;21.82;101117.69;4976569;28;45460;-51
2022/06/02 14:32:56;;;;;;;;;1.50;1.50;;;;;43.24;21.52;101129.44;4976004;28;47165;-51
2022/06/02 14:35:46;;;;;;;;;1.50;1.50;;;;;43.30;21.17;101114.72;4979664;28;45493;-50
2022/06/02 14:38:34;;;;;;;;;2.00;2.00;;;;;43.42;21.28;101112.00;4973641;28;45422;-49
2022/06/02 14:41:19;;;;;;;;;1.00;1.00;;;;;43.45;20.87;101114.28;4978627;28;45902;-49
2022/06/02 14:43:58;;;;;;;;;2.00;2.00;;;;;43.53;21.05;101105.72;4978779;28;46327;-49
2022/06/02 14:46:26;;;;;;;;;0.75;0.75;;;;;43.53;20.95;101107.66;4964997;28;45252;-50
2022/06/02 14:49:19;;;;;;;;;1.00;1.00;;;;;43.46;20.69;101104.91;4968777;28;45492;-51
2022/06/02 14:51:58;;;;;;;;;2.00;2.00;;;;;43.44;20.93;101093.25;4954436;28;45737;-47
2022/06/02 14:54:44;;;;;;;;;3.00;2.00;;;;;43.45;20.70;101101.31;4946883;28;46972;-45
2022/06/02 14:57:44;;;;;;;;;2.00;2.00;;;;;43.41;20.79;101097.34;4977067;28;45606;-49
2022/06/02 15:00:32;;;;;;;;;1.25;1.25;;;;;43.30;20.71;101092.59;4954431;28;45469;-48
2022/06/02 15:03:22;;;;;;;;;2.50;1.25;;;;;43.17;20.45;101101.88;4970702;28;45398;-48
2022/06/02 15:06:00;;;;;;;;;1.00;1.00;;;;;43.04;20.89;101098.16;4978056;28;46258;-46
2022/06/02 15:09:03;;;;;;;;;1.75;1.75;;;;;42.89;20.73;101094.09;4976305;28;45346;-51
2022/06/02 15:11:48;;;;;;;;;2.00;1.00;;;;;42.63;20.57;101085.81;4974385;28;45389;-48
2022/06/02 15:14:42;;;;;;;;;1.00;1.00;;;;;42.32;20.71;101084.81;4969251;28;45411;-48
2022/06/02 15:17:44;;;;;;;;;2.75;1.25;;;;;41.99;20.46;101085.91;4976115;28;46352;-46
2022/06/02 15:20:31;;;;;;;;;1.00;1.00;;;;;41.65;20.67;101093.50;4972448;28;45684;-46
2022/06/02 15:23:37;;;;;;;;;1.00;1.00;;;;;41.36;20.05;101078.34;4971151;28;45448;-49
2022/06/02 15:26:11;;;;;;;;;1.00;1.00;;;;;41.08;20.14;101074.84;4975879;28;45389;-49
2022/06/02 15:29:11;;;;;;;;;1.25;1.25;;;;;40.84;20.13;101078.28;4966516;28;47011;-50
2022/06/02 15:32:10;;;;;;;;;2.75;2.50;;;;;40.59;20.24;101070.69;4974838;28;45716;-49
2022/06/02 15:34:51;;;;;;;;;2.50;1.75;;;;;40.39;19.94;101074.28;4974925;28;45552;-48
2022/06/02 15:37:46;;;;;;;;;1.50;1.50;;;;;40.17;20.17;101072.78;4972080;28;45906;-47
2022/06/02 15:40:55;;;;;;;;;3.50;3.50;;;;;39.90;20.33;101073.56;4960331;28;45801;-47
2022/06/02 15:43:54;;;;;;;;;1.75;1.75;;;;;39.66;20.29;101072.22;4958982;28;45812;-48
2022/06/02 15:46:44;;;;;;;;;2.50;2.00;;;;;39.39;20.05;101076.78;4966138;28;45298;-49
2022/06/02 15:49:19;;;;;;;;;2.25;2.00;;;;;39.10;19.64;101075.97;4969927;28;45491;-49
2022/06/02 15:52:06;;;;;;;;;0.75;0.75;;;;;38.84;20.32;101078.38;4967951;28;45377;-51
2022/06/02 15:54:53;;;;;;;;;1.00;1.00;;;;;38.61;19.69;101075.84;4971075;28;45599;-49
2022/06/02 15:57:30;;;;;;;;;0.25;0.25;;;;;38.36;19.76;101079.00;4971455;28;45354;-46
2022/06/02 16:00:25;;;;;;;;;2.00;2.00;;;;;38.09;19.72;101071.56;4966963;28;45405;-48
2022/06/02 16:03:12;;;;;;;;;2.75;2.75;;;;;37.83;19.41;101070.25;4974616;28;45399;-46
2022/06/02 16:05:44;;;;;;;;;1.75;1.75;;;;;37.61;19.64;101072.06;4967761;28;45540;-46
2022/06/02 16:08:43;;;;;;;;;1.00;1.00;;;;;37.44;19.78;101063.25;4973668;28;45356;-48
2022/06/02 16:11:27;;;;;;;;;1.75;1.75;;;;;37.26;19.98;101064.47;4967700;28;45576;-47
2022/06/02 16:14:14;;;;;;;;;2.00;2.00;;;;;37.10;19.45;101070.97;4962173;28;45935;-48
2022/06/02 16:17:14;;;;;;;;;2.00;2.00;;;;;36.96;20.23;101063.59;4958255;28;45528;-50
2022/06/02 16:20:13;;;;;;;;;4.75;3.00;;;;;36.73;19.49;101059.91;4958712;28;45482;-46
2022/06/02 16:22:53;;;;;;;;;5.00;4.00;;;;;36.53;20.08;101061.44;4958481;28;45496;-48
2022/06/02 16:25:21;;;;;;;;;5.75;5.75;;;;;36.31;19.82;101057.72;4958690;28;46202;-48
2022/06/02 16:28:20;;;;;;;;;2.00;2.00;;;;;36.09;19.54;101055.66;4958510;28;45794;-50
2022/06/02 16:31:00;;;;;;;;;4.00;4.00;;;;;35.82;19.92;101053.44;4958268;28;45429;-44
2022/06/02 16:33:29;;;;;;;;;1.25;1.25;;;;;35.59;20.06;101055.09;4958218;28;45460;-45
2022/06/02 16:36:20;;;;;;;;;3.00;2.00;;;;;35.38;20.07;101052.97;4958245;28;46177;-48
2022/06/02 16:39:04;;;;;;;;;0.75;0.75;;;;;35.17;19.75;101050.84;4946845;28;45410;-45
2022/06/02 16:41:54;;;;;;;;;1.75;1.75;;;;;34.98;20.12;101063.00;4941415;28;45585;-46
2022/06/02 16:44:41;;;;;;;;;1.00;1.00;;;;;34.76;20.11;101057.22;4964220;28;45457;-46
2022/06/02 16:47:12;;;;;;;;;1.75;1.75;;;;;34.62;20.02;101061.50;4959446;28;47286;-47
2022/06/02 16:49:53;;;;;;;;;2.00;2.00;;;;;34.49;20.15;101066.63;4968228;28;45409;-45
2022/06/02 16:52:39;;;;;;;;;1.25;1.25;;;;;34.36;20.23;101069.03;4979197;28;45469;-47
2022/06/02 16:55:24;;;;;;;;;1.75;1.75;;;;;34.16;20.60;101061.16;4965801;28;45423;-46
2022/06/02 16:58:11;;;;;;;;;2.00;2.00;;;;;33.93;20.33;101056.38;4970403;28;45520;-48
2022/06/02 17:00:38;;;;;;;;;2.00;2.00;;;;;33.77;20.76;101053.59;4959212;28;45897;-47
2022/06/02 17:03:20;;;;;;;;;0.75;0.75;;;;;33.60;20.12;101052.66;4972567;28;45551;-49
2022/06/02 17:06:00;;;;;;;;;1.50;1.50;;;;;33.37;20.72;101048.69;4968755;28;45468;-47
2022/06/02 17:08:36;;;;;;;;;0.75;0.75;;;;;33.20;20.05;101049.63;4970344;28;45505;-47
2022/06/02 17:11:47;;;;;;;;;2.00;2.00;;;;;33.03;20.32;101046.81;4963377;28;45458;-48
2022/06/02 17:14:23;;;;;;;;;3.25;2.00;;;;;32.94;20.49;101038.78;4917592;28;1157666;-50
2022/06/02 17:17:30;;;;;;;;;2.00;2.00;;;;;32.82;20.23;101041.75;4961266;28;45497;-50
2022/06/02 17:20:25;;;;;;;;;6.00;4.50;;;;;32.70;20.74;101034.84;4964772;28;45744;-47
2022/06/02 17:22:51;;;;;;;;;4.00;4.00;;;;;32.62;20.39;101042.97;4964538;28;45504;-46
2022/06/02 17:25:25;;;;;;;;;2.00;2.00;;;;;32.55;20.71;101045.47;4964025;28;45627;-48
2022/06/02 17:28:19;;;;;;;;;2.00;2.00;;;;;32.44;20.76;101045.72;4960515;28;45825;-48
2022/06/02 17:31:22;;;;;;;;;3.00;2.00;;;;;32.28;20.71;101041.00;4961938;28;45557;-49
2022/06/02 17:33:55;;;;;;;;;4.25;4.25;;;;;32.10;20.99;101044.53;4962328;28;45418;-47
2022/06/02 17:36:33;;;;;;;;;3.25;3.25;;;;;32.02;20.58;101050.75;4962396;28;45498;-49